createdAt,value
2023-05-03T00:02:12.524Z,2.72
2023-05-03T00:04:39.470Z,2.45
2023-05-03T00:07:06.857Z,2.45
2023-05-03T00:09:34.962Z,2.55
2023-05-03T00:12:01.992Z,2.80
2023-05-03T00:14:28.841Z,2.15
2023-05-03T00:16:55.728Z,2.00
2023-05-03T00:19:31.474Z,2.40
2023-05-03T00:21:58.863Z,2.28
2023-05-03T00:24:25.615Z,1.98
2023-05-03T00:26:52.211Z,2.38
2023-05-03T00:29:21.156Z,2.03
2023-05-03T00:31:47.779Z,2.20
2023-05-03T00:34:14.470Z,1.80
2023-05-03T00:36:41.066Z,2.22
2023-05-03T00:39:07.801Z,1.70
2023-05-03T00:41:34.530Z,2.33
2023-05-03T00:44:01.198Z,2.30
2023-05-03T00:46:28.010Z,2.38
2023-05-03T00:48:55.173Z,1.75
2023-05-03T00:51:22.778Z,1.70
2023-05-03T00:53:49.965Z,2.22
2023-05-03T00:56:25.724Z,3.05
2023-05-03T00:58:52.620Z,2.05
2023-05-03T01:01:19.347Z,2.45
2023-05-03T01:03:46.920Z,2.88
2023-05-03T01:06:25.420Z,2.35
2023-05-03T01:09:02.200Z,2.03
2023-05-03T01:11:42.230Z,2.28
2023-05-03T01:14:41.239Z,2.42
2023-05-03T01:17:15.413Z,1.48
2023-05-03T01:19:56.445Z,1.75
2023-05-03T01:22:37.477Z,1.90
2023-05-03T01:25:09.195Z,1.85
2023-05-03T01:27:37.093Z,1.60
2023-05-03T01:30:12.558Z,2.03
2023-05-03T01:32:42.169Z,2.10
2023-05-03T01:35:15.884Z,2.00
2023-05-03T01:37:43.294Z,1.95
2023-05-03T01:40:16.715Z,2.05
2023-05-03T01:42:44.062Z,1.80
2023-05-03T01:45:12.136Z,2.10
2023-05-03T01:47:38.874Z,2.50
2023-05-03T01:50:05.936Z,2.40
2023-05-03T01:52:33.146Z,3.20
2023-05-03T01:55:00.365Z,1.83
2023-05-03T01:57:27.061Z,2.50
2023-05-03T01:59:53.714Z,2.88
2023-05-03T02:02:20.657Z,2.30
2023-05-03T02:04:47.469Z,2.05
2023-05-03T02:07:14.300Z,2.67
2023-05-03T02:09:41.276Z,2.40
2023-05-03T02:12:08.189Z,2.85
2023-05-03T02:14:34.945Z,2.85
2023-05-03T02:17:03.187Z,2.17
2023-05-03T02:19:30.056Z,2.20
2023-05-03T02:21:57.127Z,2.97
2023-05-03T02:24:23.816Z,2.22
2023-05-03T02:26:50.968Z,3.42
2023-05-03T02:29:17.864Z,2.10
2023-05-03T02:31:45.367Z,2.75
2023-05-03T02:34:12.370Z,2.45
2023-05-03T02:36:39.308Z,2.63
2023-05-03T02:39:05.990Z,2.90
2023-05-03T02:41:33.285Z,2.90
2023-05-03T02:44:00.990Z,2.92
2023-05-03T02:46:27.830Z,3.50
2023-05-03T02:48:54.494Z,3.15
2023-05-03T02:51:21.222Z,2.75
2023-05-03T02:53:48.142Z,2.38
2023-05-03T02:56:14.929Z,2.85
2023-05-03T02:58:41.672Z,3.05
2023-05-03T03:01:08.512Z,2.33
2023-05-03T03:03:35.312Z,2.33
2023-05-03T03:06:02.265Z,3.15
2023-05-03T03:08:29.046Z,3.35
2023-05-03T03:10:59.915Z,2.95
2023-05-03T03:13:26.567Z,2.55
2023-05-03T03:15:53.390Z,2.88
2023-05-03T03:18:20.122Z,3.58
2023-05-03T03:20:46.912Z,3.70
2023-05-03T03:23:13.551Z,2.90
2023-05-03T03:25:41.858Z,3.05
2023-05-03T03:28:08.796Z,3.08
2023-05-03T03:30:35.971Z,2.88
2023-05-03T03:33:16.351Z,2.83
2023-05-03T03:35:43.230Z,2.83
2023-05-03T03:38:11.597Z,2.95
2023-05-03T03:40:45.277Z,2.95
2023-05-03T03:43:11.971Z,2.67
2023-05-03T03:45:39.987Z,3.20
2023-05-03T03:48:07.382Z,3.72
2023-05-03T03:50:34.500Z,3.15
2023-05-03T03:53:01.380Z,2.40
2023-05-03T03:55:28.471Z,3.13
2023-05-03T03:57:57.806Z,3.60
2023-05-03T04:00:26.226Z,3.25
2023-05-03T04:03:04.092Z,3.60
2023-05-03T04:05:32.675Z,3.45
2023-05-03T04:07:59.505Z,3.13
2023-05-03T04:12:55.982Z,3.03
2023-05-03T04:15:22.880Z,3.08
2023-05-03T04:17:50.512Z,3.72
2023-05-03T04:20:17.757Z,3.17
2023-05-03T04:22:47.756Z,4.13
2023-05-03T04:25:17.382Z,3.13
2023-05-03T04:27:49.514Z,3.60
2023-05-03T04:30:17.523Z,5.38
2023-05-03T04:32:48.431Z,3.90
2023-05-03T04:35:15.881Z,3.70
2023-05-03T04:37:46.893Z,4.03
2023-05-03T04:40:19.721Z,3.13
2023-05-03T04:42:52.053Z,3.45
2023-05-03T04:45:20.797Z,2.80
2023-05-03T04:47:48.329Z,3.33
2023-05-03T04:50:15.078Z,3.72
2023-05-03T04:52:45.196Z,3.45
2023-05-03T04:55:12.593Z,3.47
2023-05-03T04:57:39.294Z,4.20
2023-05-03T05:00:11.928Z,3.75
2023-05-03T05:02:43.724Z,3.15
2023-05-03T05:05:11.339Z,3.55
2023-05-03T05:07:38.080Z,3.22
2023-05-03T05:10:05.713Z,4.13
2023-05-03T05:12:32.864Z,4.53
2023-05-03T05:17:29.317Z,3.40
2023-05-03T05:19:56.272Z,3.72
2023-05-03T05:22:22.914Z,3.17
2023-05-03T05:24:55.221Z,2.80
2023-05-03T05:27:23.777Z,4.07
2023-05-03T05:29:52.621Z,2.75
2023-05-03T05:32:20.047Z,3.63
2023-05-03T05:34:53.003Z,3.60
2023-05-03T05:37:23.875Z,3.63
2023-05-03T05:39:51.419Z,4.07
2023-05-03T05:42:19.928Z,3.43
2023-05-03T05:44:46.632Z,3.78
2023-05-03T05:47:13.659Z,3.60
2023-05-03T05:49:43.676Z,2.80
2023-05-03T05:52:11.655Z,3.70
2023-05-03T05:54:38.893Z,4.10
2023-05-03T05:57:05.703Z,4.10
2023-05-03T05:59:32.402Z,4.20
2023-05-03T06:02:00.342Z,4.03
2023-05-03T06:04:27.832Z,3.85
2023-05-03T06:06:56.091Z,3.90
2023-05-03T06:09:24.749Z,4.80
2023-05-03T06:11:57.422Z,3.85
2023-05-03T06:14:26.233Z,5.03
2023-05-03T06:16:53.870Z,3.70
2023-05-03T06:19:20.970Z,4.50
2023-05-03T06:21:47.813Z,3.90
2023-05-03T06:24:21.046Z,4.20
2023-05-03T06:26:50.510Z,3.15
2023-05-03T06:29:18.306Z,6.00
2023-05-03T06:31:45.598Z,3.55
2023-05-03T06:34:13.176Z,3.00
2023-05-03T06:36:41.821Z,2.97
2023-05-03T06:39:09.570Z,3.53
2023-05-03T06:41:36.222Z,3.13
2023-05-03T06:44:04.293Z,3.42
2023-05-03T06:46:31.460Z,3.05
2023-05-03T06:48:58.256Z,3.60
2023-05-03T06:51:30.289Z,3.88
2023-05-03T06:54:01.924Z,3.42
2023-05-03T06:56:28.677Z,3.22
2023-05-03T06:58:55.510Z,2.92
2023-05-03T07:01:23.250Z,3.88
2023-05-03T07:03:50.126Z,3.95
2023-05-03T07:06:16.950Z,3.50
2023-05-03T07:08:43.964Z,3.60
2023-05-03T07:11:10.916Z,3.90
2023-05-03T07:13:37.561Z,3.67
2023-05-03T07:16:04.511Z,4.05
2023-05-03T07:18:31.324Z,3.40
2023-05-03T07:20:57.942Z,3.70
2023-05-03T07:23:25.396Z,4.05
2023-05-03T07:25:53.965Z,4.28
2023-05-03T07:28:20.629Z,3.55
2023-05-03T07:30:47.283Z,3.38
2023-05-03T07:33:14.056Z,3.47
2023-05-03T07:35:40.788Z,2.70
2023-05-03T07:38:07.541Z,3.13
2023-05-03T07:40:34.412Z,2.90
2023-05-03T07:43:01.308Z,2.97
2023-05-03T07:45:28.136Z,3.35
2023-05-03T07:47:56.952Z,3.25
2023-05-03T07:50:23.695Z,3.00
2023-05-03T07:52:51.815Z,3.50
2023-05-03T07:55:20.105Z,3.20
2023-05-03T07:57:46.841Z,3.45
2023-05-03T08:00:14.108Z,3.22
2023-05-03T08:02:41.258Z,3.65
2023-05-03T08:05:09.976Z,3.38
2023-05-03T08:07:36.971Z,3.85
2023-05-03T08:10:04.611Z,3.03
2023-05-03T08:12:32.704Z,3.17
2023-05-03T08:14:59.536Z,3.35
2023-05-03T08:17:26.397Z,2.80
2023-05-03T08:19:55.747Z,3.45
2023-05-03T08:22:25.274Z,3.50
2023-05-03T08:27:20.095Z,2.33
2023-05-03T08:29:47.221Z,4.45
2023-05-03T08:32:14.268Z,2.72
2023-05-03T08:34:41.448Z,3.22
2023-05-03T08:37:08.177Z,2.53
2023-05-03T08:39:34.887Z,2.67
2023-05-03T08:42:07.178Z,2.90
2023-05-03T08:44:38.116Z,2.72
2023-05-03T08:47:06.177Z,3.75
2023-05-03T08:49:35.257Z,3.08
2023-05-03T08:52:02.807Z,2.80
2023-05-03T08:54:29.608Z,3.47
2023-05-03T08:56:56.215Z,3.42
2023-05-03T08:59:22.927Z,2.72
2023-05-03T09:01:49.540Z,2.78
2023-05-03T09:04:17.358Z,2.60
2023-05-03T09:06:44.159Z,2.90
2023-05-03T09:09:11.054Z,2.35
2023-05-03T09:11:39.192Z,2.35
2023-05-03T09:14:17.111Z,2.30
2023-05-03T09:16:45.475Z,2.42
2023-05-03T09:19:14.058Z,2.53
2023-05-03T09:21:42.151Z,2.67
2023-05-03T09:24:17.151Z,2.20
2023-05-03T09:26:45.546Z,2.15
2023-05-03T09:29:30.584Z,2.30
2023-05-03T09:32:06.290Z,1.75
2023-05-03T09:34:33.967Z,1.88
2023-05-03T09:37:00.933Z,2.00
2023-05-03T09:39:27.741Z,2.17
2023-05-03T09:41:54.466Z,2.53
2023-05-03T09:44:41.373Z,2.03
2023-05-03T09:47:08.222Z,2.10
2023-05-03T09:49:36.931Z,2.28
2023-05-03T09:52:04.656Z,1.98
2023-05-03T09:54:31.545Z,2.20
2023-05-03T09:56:59.183Z,1.85
2023-05-03T09:59:25.860Z,2.67
2023-05-03T10:01:56.508Z,1.63
2023-05-03T10:04:26.572Z,1.58
2023-05-03T10:07:07.714Z,1.88
2023-05-03T10:09:40.239Z,1.77
2023-05-03T10:12:16.417Z,1.70
2023-05-03T10:14:48.450Z,2.50
2023-05-03T10:17:42.942Z,2.38
2023-05-03T10:20:23.044Z,1.25
2023-05-03T10:23:05.119Z,1.52
2023-05-03T10:25:33.249Z,1.67
2023-05-03T10:28:12.039Z,1.95
2023-05-03T10:30:40.480Z,1.80
2023-05-03T10:33:10.295Z,1.52
2023-05-03T10:35:40.403Z,1.75
2023-05-03T10:38:17.529Z,1.85
2023-05-03T10:40:44.587Z,1.35
2023-05-03T10:43:32.459Z,1.50
2023-05-03T10:46:06.565Z,1.50
2023-05-03T10:48:34.644Z,2.05
2023-05-03T10:51:36.569Z,1.52
2023-05-03T10:54:03.434Z,1.05
2023-05-03T10:56:30.088Z,2.15
2023-05-03T10:58:58.825Z,2.08
2023-05-03T11:01:28.008Z,1.90
2023-05-03T11:04:36.738Z,1.80
2023-05-03T11:07:04.623Z,1.77
2023-05-03T11:09:35.177Z,1.67
2023-05-03T11:12:06.887Z,1.60
2023-05-03T11:14:33.757Z,2.58
2023-05-03T11:17:01.295Z,1.50
2023-05-03T11:19:28.921Z,1.20
2023-05-03T11:21:56.253Z,1.25
2023-05-03T11:24:22.964Z,1.40
2023-05-03T11:26:49.602Z,1.10
2023-05-03T11:29:17.696Z,1.38
2023-05-03T11:31:44.703Z,1.10
2023-05-03T11:34:12.753Z,1.23
2023-05-03T11:36:40.798Z,0.90
2023-05-03T11:39:08.109Z,1.85
2023-05-03T11:41:35.612Z,1.30
2023-05-03T11:44:15.123Z,1.70
2023-05-03T11:46:45.874Z,1.50
2023-05-03T11:49:17.874Z,1.10
2023-05-03T11:51:47.861Z,1.50
2023-05-03T11:54:25.300Z,1.40
2023-05-03T11:56:57.896Z,1.60
2023-05-03T11:59:39.065Z,1.42
2023-05-03T12:02:07.938Z,1.70
2023-05-03T12:04:41.394Z,1.23
2023-05-03T12:07:11.287Z,1.60
2023-05-03T12:09:40.951Z,0.95
2023-05-03T12:12:10.473Z,1.10
2023-05-03T12:15:27.042Z,1.20
2023-05-03T12:18:00.200Z,1.95
2023-05-03T12:23:05.158Z,1.25
2023-05-03T12:25:34.100Z,2.00
2023-05-03T12:28:19.412Z,1.30
2023-05-03T12:30:47.074Z,2.25
2023-05-03T12:33:16.262Z,2.20
2023-05-03T12:35:46.678Z,1.63
2023-05-03T12:38:16.673Z,1.77
2023-05-03T12:40:45.556Z,1.33
2023-05-03T12:43:12.715Z,1.48
2023-05-03T12:45:40.903Z,1.77
2023-05-03T12:48:09.160Z,1.83
2023-05-03T12:50:38.867Z,1.40
2023-05-03T12:53:09.313Z,1.15
2023-05-03T12:55:43.212Z,1.00
2023-05-03T13:00:53.535Z,1.50
2023-05-03T13:03:33.487Z,1.80
2023-05-03T13:06:12.505Z,0.80
2023-05-03T13:08:48.802Z,1.25
2023-05-03T13:11:19.285Z,1.05
2023-05-03T13:16:14.500Z,2.90
2023-05-03T13:18:42.840Z,1.10
2023-05-03T13:21:10.538Z,1.10
2023-05-03T13:23:39.350Z,1.00
2023-05-03T13:26:07.110Z,0.93
2023-05-03T13:28:34.375Z,1.55
2023-05-03T13:31:01.841Z,1.23
2023-05-03T13:33:29.363Z,1.55
2023-05-03T13:35:56.626Z,0.90
2023-05-03T13:38:23.398Z,0.85
2023-05-03T13:40:50.159Z,0.63
2023-05-03T13:43:17.028Z,0.68
2023-05-03T13:45:43.814Z,0.93
2023-05-03T13:48:10.743Z,0.90
2023-05-03T13:50:45.610Z,2.55
2023-05-03T13:53:12.297Z,0.80
2023-05-03T13:55:39.035Z,1.23
2023-05-03T13:58:05.745Z,0.90
2023-05-03T14:00:32.627Z,0.65
2023-05-03T14:02:59.422Z,0.85
2023-05-03T14:05:26.468Z,0.77
2023-05-03T14:07:53.358Z,0.70
2023-05-03T14:10:20.199Z,0.88
2023-05-03T14:12:47.225Z,0.90
2023-05-03T14:15:15.009Z,1.30
2023-05-03T14:17:43.659Z,1.70
2023-05-03T14:20:12.125Z,0.75
2023-05-03T14:22:41.584Z,1.98
2023-05-03T14:27:35.235Z,0.75
2023-05-03T14:30:02.542Z,0.43
2023-05-03T14:32:37.229Z,1.23
2023-05-03T14:35:04.237Z,1.20
2023-05-03T14:37:31.292Z,1.38
2023-05-03T14:39:58.752Z,0.30
2023-05-03T14:42:30.264Z,0.90
2023-05-03T14:45:00.126Z,0.77
2023-05-03T14:47:27.471Z,0.70
2023-05-03T14:49:54.558Z,0.43
2023-05-03T14:52:21.322Z,0.38
2023-05-03T14:54:48.265Z,0.65
2023-05-03T14:57:15.136Z,1.23
2023-05-03T14:59:42.170Z,0.80
2023-05-03T15:02:10.194Z,0.88
2023-05-03T15:04:40.419Z,0.52
2023-05-03T15:07:07.482Z,0.60
2023-05-03T15:09:36.189Z,2.65
2023-05-03T15:12:03.942Z,0.52
2023-05-03T15:14:31.277Z,0.45
2023-05-03T15:16:58.221Z,0.60
2023-05-03T15:19:26.731Z,0.55
2023-05-03T15:21:53.684Z,0.45
2023-05-03T15:24:21.717Z,0.50
2023-05-03T15:26:48.582Z,0.57
2023-05-03T15:29:16.126Z,0.35
2023-05-03T15:31:43.713Z,0.60
2023-05-03T15:34:13.169Z,0.30
2023-05-03T15:36:40.791Z,0.40
2023-05-03T15:39:07.855Z,0.90
2023-05-03T15:41:34.599Z,0.55
2023-05-03T15:44:05.236Z,2.60
2023-05-03T15:46:32.813Z,0.75
2023-05-03T15:48:59.708Z,1.00
2023-05-03T15:51:27.771Z,0.40
2023-05-03T15:53:54.564Z,2.05
2023-05-03T15:56:24.517Z,0.90
2023-05-03T15:58:51.659Z,0.47
2023-05-03T16:01:19.300Z,0.10
2023-05-03T16:03:46.283Z,1.38
2023-05-03T16:06:17.855Z,0.60
2023-05-03T16:08:45.076Z,0.43
2023-05-03T16:11:12.842Z,0.20
2023-05-03T16:13:39.652Z,0.20
2023-05-03T16:16:06.984Z,0.40
2023-05-03T16:18:34.012Z,0.60
2023-05-03T16:21:01.738Z,0.60
2023-05-03T16:23:28.568Z,0.30
2023-05-03T16:25:55.214Z,0.38
2023-05-03T16:28:22.231Z,0.20
2023-05-03T16:30:48.854Z,0.20
2023-05-03T16:33:15.624Z,0.10
2023-05-03T16:35:42.360Z,0.30
2023-05-03T16:38:09.012Z,0.20
2023-05-03T16:40:36.951Z,0.10
2023-05-03T16:43:06.420Z,0.73
2023-05-03T16:45:33.291Z,0.20
2023-05-03T16:48:01.376Z,0.10
2023-05-03T16:50:45.157Z,0.30
2023-05-03T16:53:12.274Z,0.10
2023-05-03T16:56:12.866Z,0.35
2023-05-03T17:05:47.128Z,1.15
2023-05-03T17:12:25.145Z,0.90
2023-05-03T17:14:51.999Z,2.03
2023-05-03T17:17:18.763Z,0.63
2023-05-03T17:19:45.523Z,0.60
2023-05-03T17:22:12.175Z,1.65
2023-05-03T17:24:38.967Z,1.02
2023-05-03T17:27:09.440Z,1.77
2023-05-03T17:29:36.544Z,2.10
2023-05-03T17:32:04.038Z,1.27
2023-05-03T17:34:31.281Z,4.57
2023-05-03T17:36:59.241Z,1.85
2023-05-03T17:39:26.036Z,2.40
2023-05-03T17:41:53.884Z,1.55
2023-05-03T17:44:22.959Z,0.73
2023-05-03T17:46:50.275Z,1.52
2023-05-03T17:49:17.223Z,0.50
2023-05-03T17:51:44.067Z,3.30
2023-05-03T17:54:10.752Z,2.78
2023-05-03T17:56:37.424Z,0.68
2023-05-03T17:59:04.145Z,0.35
2023-05-03T18:01:30.978Z,0.63
2023-05-03T18:03:57.896Z,0.65
2023-05-03T18:06:24.806Z,0.63
2023-05-03T18:08:51.801Z,0.73
2023-05-03T18:11:18.838Z,0.68
2023-05-03T18:13:45.905Z,0.93
2023-05-03T18:16:12.779Z,4.90
2023-05-03T18:18:39.627Z,1.50
2023-05-03T18:21:06.671Z,0.65
2023-05-03T18:23:35.491Z,1.42
2023-05-03T18:26:02.374Z,1.48
2023-05-03T18:28:29.803Z,0.90
2023-05-03T18:30:56.659Z,0.50
2023-05-03T18:33:23.881Z,0.57
2023-05-03T18:35:52.310Z,2.92
2023-05-03T18:38:21.389Z,0.60
2023-05-03T18:40:49.441Z,2.47
2023-05-03T18:43:17.070Z,1.97
2023-05-03T18:45:45.600Z,1.60
2023-05-03T18:48:12.697Z,0.90
2023-05-03T18:50:39.764Z,0.90
2023-05-03T18:53:06.828Z,1.00
2023-05-03T18:55:33.764Z,1.85
2023-05-03T18:58:00.677Z,3.05
2023-05-03T19:00:27.842Z,0.80
2023-05-03T19:02:54.609Z,1.15
2023-05-03T19:05:21.432Z,1.67
2023-05-03T19:07:48.741Z,1.50
2023-05-03T19:10:16.286Z,2.20
2023-05-03T19:12:44.278Z,2.90
2023-05-03T19:15:12.233Z,2.95
2023-05-03T19:17:41.868Z,1.38
2023-05-03T19:20:10.491Z,1.70
2023-05-03T19:22:37.774Z,0.80
2023-05-03T19:25:05.506Z,0.82
2023-05-03T19:27:34.321Z,0.70
2023-05-03T19:30:01.163Z,0.70
2023-05-03T19:32:28.186Z,0.65
2023-05-03T19:34:55.020Z,0.85
2023-05-03T19:37:21.828Z,1.15
2023-05-03T19:39:48.623Z,1.48
2023-05-03T19:42:15.759Z,1.45
2023-05-03T19:44:42.440Z,0.80
2023-05-03T19:47:09.221Z,0.70
2023-05-03T19:49:36.004Z,1.00
2023-05-03T19:52:04.670Z,0.60
2023-05-03T19:54:32.964Z,0.67
2023-05-03T19:57:06.462Z,0.93
2023-05-03T19:59:33.989Z,0.70
2023-05-03T20:02:00.918Z,1.00
2023-05-03T20:04:27.739Z,1.48
2023-05-03T20:06:54.381Z,1.23
2023-05-03T20:09:23.421Z,1.05
2023-05-03T20:11:51.369Z,1.13
2023-05-03T20:14:18.664Z,1.00
2023-05-03T20:16:45.458Z,0.88
2023-05-03T20:19:13.267Z,0.88
2023-05-03T20:21:40.015Z,1.30
2023-05-03T20:24:10.689Z,1.35
2023-05-03T20:26:41.235Z,1.98
2023-05-03T20:29:09.124Z,1.48
2023-05-03T20:31:38.779Z,1.08
2023-05-03T20:36:32.685Z,2.17
2023-05-03T20:38:59.688Z,2.20
2023-05-03T20:41:26.762Z,1.98
2023-05-03T20:43:54.914Z,1.90
2023-05-03T20:46:21.895Z,2.42
2023-05-03T20:48:48.875Z,2.45
2023-05-03T20:51:15.644Z,2.88
2023-05-03T20:53:42.541Z,1.70
2023-05-03T20:56:09.430Z,1.98
2023-05-03T20:58:36.377Z,1.83
2023-05-03T21:01:08.254Z,1.20
2023-05-03T21:03:35.303Z,2.22
2023-05-03T21:06:02.638Z,1.60
2023-05-03T21:08:29.296Z,2.38
2023-05-03T21:10:56.356Z,1.17
2023-05-03T21:13:23.113Z,1.35
2023-05-03T21:15:50.920Z,2.13
2023-05-03T21:18:18.835Z,2.35
2023-05-03T21:20:45.746Z,1.40
2023-05-03T21:23:13.334Z,0.85
2023-05-03T21:25:40.115Z,1.40
2023-05-03T21:28:06.953Z,0.68
2023-05-03T21:30:33.605Z,0.88
2023-05-03T21:33:03.031Z,0.65
2023-05-03T21:35:29.797Z,1.17
2023-05-03T21:37:56.625Z,0.85
2023-05-03T21:40:23.509Z,1.35
2023-05-03T21:42:52.508Z,2.17
2023-05-03T21:45:19.840Z,1.48
2023-05-03T21:47:46.915Z,2.10
2023-05-03T21:50:14.136Z,2.05
2023-05-03T21:52:41.379Z,2.28
2023-05-03T21:55:08.933Z,2.00
2023-05-03T21:57:36.828Z,1.73
2023-05-03T22:00:05.622Z,1.58
2023-05-03T22:02:35.474Z,1.80
2023-05-03T22:05:02.503Z,2.08
2023-05-03T22:07:29.362Z,2.70
2023-05-03T22:09:56.057Z,1.40
2023-05-03T22:12:24.587Z,1.42
2023-05-03T22:14:52.645Z,2.42
2023-05-03T22:17:19.988Z,2.65
2023-05-03T22:19:46.893Z,1.40
2023-05-03T22:22:13.538Z,2.45
2023-05-03T22:24:41.031Z,2.47
2023-05-03T22:27:07.827Z,1.95
2023-05-03T22:29:34.457Z,2.03
2023-05-03T22:32:01.258Z,4.03
2023-05-03T22:34:27.975Z,2.88
2023-05-03T22:36:54.871Z,2.50
2023-05-03T22:39:21.997Z,3.47
2023-05-03T22:41:48.629Z,1.95
2023-05-03T22:44:15.466Z,1.83
2023-05-03T22:46:42.694Z,1.05
2023-05-03T22:49:09.834Z,1.90
2023-05-03T22:51:36.557Z,1.10
2023-05-03T22:54:03.321Z,1.30
2023-05-03T22:56:30.107Z,1.13
2023-05-03T22:58:56.762Z,0.80
2023-05-03T23:01:26.015Z,0.60
2023-05-03T23:03:52.804Z,1.20
2023-05-03T23:06:19.594Z,1.58
2023-05-03T23:08:46.367Z,3.30
2023-05-03T23:11:13.512Z,3.10
2023-05-03T23:13:40.371Z,4.65
2023-05-03T23:16:07.978Z,0.63
2023-05-03T23:18:34.638Z,0.70
2023-05-03T23:21:01.670Z,0.93
2023-05-03T23:23:29.022Z,1.33
2023-05-03T23:25:56.016Z,1.08
2023-05-03T23:28:22.988Z,1.17
2023-05-03T23:30:50.930Z,1.45
2023-05-03T23:33:18.045Z,2.03
2023-05-03T23:35:47.732Z,1.25
2023-05-03T23:38:14.771Z,1.27
2023-05-03T23:40:41.662Z,1.63
2023-05-03T23:43:08.615Z,2.92
2023-05-03T23:45:35.665Z,2.95
2023-05-03T23:48:02.612Z,2.67
2023-05-03T23:50:29.266Z,1.80
2023-05-03T23:52:56.050Z,2.17
2023-05-03T23:55:22.762Z,2.00
2023-05-03T23:57:50.600Z,0.85
